Time;durP1;ratioP1;P1;durP2;ratioP2;P2;SDS_P1;SDS_P2;PMS_P1;PMS_P2;Temp;Humidity;BMP_temperature;BMP_pressure;BME280_temperature;BME280_humidity;BME280_pressure;Samples;Min_cycle;Max_cycle;Signal;HPM_P1;HPM_P2
2021/11/30 00:01:29;;;;;;;19.38;12.25;;;-2.50;99.90;;;;;;5070420;28;20336;-72
2021/11/30 00:03:55;;;;;;;19.45;10.93;;;-2.60;99.90;;;;;;5052462;28;20172;-72
2021/11/30 00:06:22;;;;;;;20.00;11.68;;;-2.60;99.90;;;;;;5070455;28;20157;-72
2021/11/30 00:08:48;;;;;;;21.75;9.63;;;-2.60;99.90;;;;;;5070332;28;20184;-73
2021/11/30 00:11:15;;;;;;;18.25;9.85;;;-2.50;99.90;;;;;;5070148;28;20251;-73
2021/11/30 00:13:41;;;;;;;19.98;10.80;;;-2.40;99.90;;;;;;5070029;28;20197;-72
2021/11/30 00:16:08;;;;;;;25.08;13.38;;;-2.50;99.90;;;;;;5052122;28;20169;-72
2021/11/30 00:18:34;;;;;;;19.40;12.40;;;-2.60;99.90;;;;;;5052298;28;20218;-72
2021/11/30 00:21:07;;;;;;;18.63;11.07;;;-2.50;99.90;;;;;;5048548;28;20279;-72
2021/11/30 00:23:34;;;;;;;19.20;10.68;;;-2.50;99.90;;;;;;5048678;28;20220;-73
2021/11/30 00:26:01;;;;;;;19.83;11.00;;;-2.60;99.90;;;;;;5050066;28;20161;-73
2021/11/30 00:28:27;;;;;;;15.60;11.10;;;-2.70;99.90;;;;;;5048733;28;20180;-73
2021/11/30 00:30:53;;;;;;;18.48;11.35;;;-2.70;99.90;;;;;;5049798;28;20248;-72
2021/11/30 00:33:19;;;;;;;19.17;10.45;;;-2.80;99.90;;;;;;5049785;28;20500;-72
2021/11/30 00:35:45;;;;;;;19.48;10.70;;;-2.60;99.90;;;;;;5049878;28;20213;-73
2021/11/30 00:38:16;;;;;;;14.80;10.10;;;-2.70;99.90;;;;;;5049881;28;20192;-72
2021/11/30 00:40:44;;;;;;;24.25;11.98;;;-2.70;99.90;;;;;;5048361;28;20193;-72
2021/11/30 00:43:18;;;;;;;15.27;9.50;;;-2.80;99.90;;;;;;5049797;28;20170;-71
2021/11/30 00:45:53;;;;;;;20.10;9.68;;;-3.10;99.90;;;;;;5049744;28;20224;-72
2021/11/30 00:48:23;;;;;;;20.27;10.20;;;-3.00;99.90;;;;;;5049667;28;20157;-72
2021/11/30 00:50:52;;;;;;;14.10;8.73;;;-2.90;99.90;;;;;;5048199;28;20193;-73
2021/11/30 00:53:19;;;;;;;19.77;8.80;;;-3.00;99.90;;;;;;5049534;28;20157;-72
2021/11/30 00:55:45;;;;;;;12.57;8.38;;;-3.10;99.90;;;;;;5049508;28;20200;-72
2021/11/30 00:58:11;;;;;;;17.98;10.02;;;-3.10;99.90;;;;;;5049490;28;20154;-73
2021/11/30 01:00:37;;;;;;;14.93;8.98;;;-3.20;99.90;;;;;;5048569;28;20181;-73
2021/11/30 01:03:05;;;;;;;18.00;9.13;;;-3.10;99.90;;;;;;5049459;28;20538;-72
2021/11/30 01:05:33;;;;;;;14.73;8.18;;;-3.30;99.90;;;;;;5048108;28;20169;-73
2021/11/30 01:07:59;;;;;;;19.75;9.13;;;-3.40;99.90;;;;;;5049332;28;20214;-72
2021/11/30 01:10:25;;;;;;;19.27;10.00;;;-3.30;99.90;;;;;;5049253;28;20193;-72
2021/11/30 01:12:51;;;;;;;16.42;9.57;;;-3.30;99.90;;;;;;5049347;28;20531;-72
2021/11/30 01:15:20;;;;;;;20.45;11.55;;;-3.20;99.90;;;;;;5049038;28;20196;-72
2021/11/30 01:17:47;;;;;;;22.88;11.73;;;-3.30;99.90;;;;;;5049139;28;20201;-72
2021/11/30 01:20:13;;;;;;;13.88;10.50;;;-3.10;99.90;;;;;;5050708;28;20242;-73
2021/11/30 01:22:40;;;;;;;16.23;10.63;;;-2.90;99.90;;;;;;5051327;28;20160;-72
2021/11/30 01:25:07;;;;;;;15.85;10.70;;;-3.10;99.90;;;;;;5068988;28;20156;-72
2021/11/30 01:27:33;;;;;;;18.60;10.90;;;-3.10;99.90;;;;;;5069111;28;20168;-73
2021/11/30 01:29:59;;;;;;;24.90;12.98;;;-2.90;99.90;;;;;;5068664;28;20256;-71
2021/11/30 01:32:25;;;;;;;18.63;10.75;;;-3.00;99.90;;;;;;5051236;28;20169;-73
2021/11/30 01:34:51;;;;;;;26.02;13.38;;;-3.00;99.90;;;;;;5068985;28;20214;-72
2021/11/30 01:37:17;;;;;;;25.10;12.35;;;-3.00;99.90;;;;;;5051144;28;20228;-74
2021/11/30 01:39:46;;;;;;;18.05;11.35;;;-2.90;99.90;;;;;;5068895;28;20160;-73
2021/11/30 01:42:14;;;;;;;23.17;12.35;;;-2.90;99.90;;;;;;5067970;28;20197;-73
2021/11/30 01:49:58;;;;;;;12.98;9.00;;;-3.00;99.90;;;;;;5069043;28;20191;-72
2021/11/30 01:52:24;;;;;;;14.57;8.95;;;-3.00;99.90;;;;;;5050774;28;20224;-72
2021/11/30 01:54:51;;;;;;;13.85;9.23;;;-3.00;99.90;;;;;;5050772;28;20204;-72
2021/11/30 01:57:21;;;;;;;13.40;7.90;;;-3.10;99.90;;;;;;5068895;28;20157;-74
2021/11/30 01:59:49;;;;;;;11.82;6.95;;;-2.90;99.90;;;;;;5068822;28;20161;-72
2021/11/30 02:02:15;;;;;;;19.88;10.38;;;-2.80;99.90;;;;;;5068730;28;20189;-73
2021/11/30 02:04:41;;;;;;;13.77;9.27;;;-2.80;99.90;;;;;;5068775;28;20159;-72
2021/11/30 02:07:08;;;;;;;17.60;8.98;;;-3.10;99.90;;;;;;5068648;28;20172;-72
2021/11/30 02:09:36;;;;;;;18.17;9.43;;;-3.20;99.90;;;;;;5068817;28;20157;-72
2021/11/30 02:12:03;;;;;;;13.25;7.45;;;-3.20;99.90;;;;;;5051428;28;20268;-73
2021/11/30 02:14:30;;;;;;;13.77;8.00;;;-3.10;99.90;;;;;;5054562;28;20618;-73
2021/11/30 02:16:57;;;;;;;12.18;7.60;;;-3.20;99.90;;;;;;5054431;28;20222;-73
2021/11/30 02:19:23;;;;;;;10.43;7.35;;;-3.20;99.90;;;;;;5054529;28;20172;-72
2021/11/30 02:21:49;;;;;;;13.65;7.10;;;-3.20;99.90;;;;;;5072101;28;20224;-72
2021/11/30 02:24:14;;;;;;;10.60;6.57;;;-3.20;99.90;;;;;;5072334;28;20157;-73
2021/11/30 02:26:41;;;;;;;12.20;7.47;;;-3.10;99.90;;;;;;5072270;28;20153;-72
2021/11/30 02:29:09;;;;;;;9.18;6.38;;;-3.10;99.90;;;;;;5072323;28;20186;-72
2021/11/30 02:31:38;;;;;;;8.45;6.32;;;-3.30;99.90;;;;;;5072124;28;20165;-72
2021/11/30 02:34:05;;;;;;;13.15;7.55;;;-3.30;99.90;;;;;;5054043;28;20205;-72
2021/11/30 02:36:48;;;;;;;9.63;6.60;;;-3.50;99.90;;;;;;5054132;28;20663;-71
2021/11/30 02:39:23;;;;;;;10.15;6.13;;;-3.30;99.90;;;;;;5072012;28;20168;-71
2021/11/30 02:41:51;;;;;;;14.63;7.70;;;-3.40;99.90;;;;;;5072021;28;20567;-72
2021/11/30 02:44:20;;;;;;;10.77;6.05;;;-3.50;99.90;;;;;;5071981;28;20157;-72
2021/11/30 02:46:49;;;;;;;7.47;6.43;;;-3.40;99.90;;;;;;5071900;28;20177;-71
2021/11/30 02:49:18;;;;;;;13.63;7.18;;;-3.20;99.90;;;;;;5071868;28;20626;-72
2021/11/30 02:51:48;;;;;;;13.90;6.70;;;-3.40;99.90;;;;;;5053682;28;20177;-72
2021/11/30 02:54:17;;;;;;;11.25;7.18;;;-3.40;99.90;;;;;;5053683;28;20204;-73
2021/11/30 02:56:50;;;;;;;10.82;7.32;;;-3.40;99.90;;;;;;5071691;28;20163;-72
2021/11/30 02:59:17;;;;;;;11.40;6.93;;;-3.60;99.90;;;;;;5053634;28;20175;-72
2021/11/30 03:02:01;;;;;;;10.32;6.05;;;-3.40;99.90;;;;;;5053732;28;20621;-72
2021/11/30 03:04:28;;;;;;;9.18;6.22;;;-3.50;99.90;;;;;;5071546;28;20160;-72
2021/11/30 03:06:55;;;;;;;10.90;6.22;;;-3.70;99.90;;;;;;5053540;28;20234;-72
2021/11/30 03:09:22;;;;;;;15.00;7.80;;;-3.60;99.90;;;;;;5071467;28;20180;-73
2021/11/30 03:11:49;;;;;;;12.23;7.60;;;-3.60;99.90;;;;;;5071345;28;20157;-73
2021/11/30 03:14:15;;;;;;;11.68;6.20;;;-3.50;99.90;;;;;;5071130;28;20200;-72
2021/11/30 03:16:44;;;;;;;11.88;8.23;;;-3.40;99.90;;;;;;5053265;28;20172;-72
2021/11/30 03:19:10;;;;;;;8.63;6.47;;;-3.30;99.90;;;;;;5053327;28;20175;-72
2021/11/30 03:21:36;;;;;;;8.23;6.55;;;-3.30;99.90;;;;;;5070894;28;20287;-72
2021/11/30 03:24:02;;;;;;;12.68;6.70;;;-3.30;99.90;;;;;;5070363;28;20244;-72
2021/11/30 03:26:28;;;;;;;8.82;6.75;;;-3.30;99.90;;;;;;5071173;28;20247;-73
2021/11/30 03:28:54;;;;;;;11.07;6.15;;;-3.30;99.90;;;;;;5071073;28;20168;-72
2021/11/30 03:34:08;;;;;;;9.48;6.43;;;-3.40;99.90;;;;;;5070804;28;20322;-72
2021/11/30 03:36:35;;;;;;;8.85;5.45;;;-3.30;99.90;;;;;;5052985;28;20175;-72
2021/11/30 03:39:06;;;;;;;15.18;7.30;;;-3.40;99.90;;;;;;5070968;28;20153;-73
2021/11/30 03:41:34;;;;;;;7.65;6.28;;;-3.30;99.90;;;;;;5070751;28;20164;-74
2021/11/30 03:44:02;;;;;;;10.27;5.90;;;-3.30;99.90;;;;;;5070714;28;20241;-71
2021/11/30 03:46:30;;;;;;;11.07;6.57;;;-3.50;99.90;;;;;;5070629;28;20160;-72
2021/11/30 03:48:56;;;;;;;11.25;5.53;;;-3.60;99.90;;;;;;5052775;28;20256;-72
2021/11/30 03:51:22;;;;;;;8.15;6.65;;;-3.40;99.90;;;;;;5052731;28;20169;-72
2021/11/30 03:53:48;;;;;;;17.27;10.40;;;-3.50;99.90;;;;;;5052555;28;20204;-71
2021/11/30 03:56:14;;;;;;;10.27;6.55;;;-3.60;99.90;;;;;;5052491;28;20248;-72
2021/11/30 03:58:39;;;;;;;12.38;7.80;;;-3.70;99.90;;;;;;5052454;28;20192;-72
2021/11/30 04:01:06;;;;;;;11.02;5.90;;;-3.70;99.90;;;;;;5052496;28;20196;-73
2021/11/30 04:03:34;;;;;;;10.07;6.35;;;-3.50;99.90;;;;;;5070250;28;20195;-73
2021/11/30 04:06:01;;;;;;;9.65;5.65;;;-3.50;99.90;;;;;;5070391;28;20157;-72
2021/11/30 04:08:27;;;;;;;8.77;5.22;;;-3.50;99.90;;;;;;5070012;28;20672;-72
2021/11/30 04:10:53;;;;;;;8.77;5.93;;;-3.50;99.90;;;;;;5070233;28;20173;-72
2021/11/30 04:13:19;;;;;;;8.80;4.68;;;-3.70;99.90;;;;;;5070116;28;20214;-72
2021/11/30 04:15:46;;;;;;;10.23;6.72;;;-3.70;99.90;;;;;;5070118;28;20191;-73
2021/11/30 04:18:12;;;;;;;7.97;4.70;;;-3.70;99.90;;;;;;5052207;28;20548;-72
2021/11/30 04:20:38;;;;;;;7.55;5.28;;;-3.60;99.90;;;;;;5069805;28;20227;-73
2021/11/30 04:23:04;;;;;;;7.95;6.13;;;-3.50;99.90;;;;;;5069845;28;20188;-72
2021/11/30 04:25:30;;;;;;;10.90;5.47;;;-3.40;99.90;;;;;;5069947;28;20165;-72
2021/11/30 04:27:56;;;;;;;9.15;5.80;;;-3.40;99.90;;;;;;5069906;28;20161;-72
2021/11/30 04:30:22;;;;;;;7.95;5.53;;;-3.40;99.90;;;;;;5069907;28;20161;-72
2021/11/30 04:32:48;;;;;;;7.93;5.05;;;-3.40;99.90;;;;;;5051750;28;20203;-73
2021/11/30 04:35:14;;;;;;;10.10;5.72;;;-3.40;99.90;;;;;;5051788;28;20223;-73
2021/11/30 04:37:41;;;;;;;8.38;5.05;;;-3.40;99.90;;;;;;5069685;28;20164;-72
2021/11/30 04:40:09;;;;;;;9.60;5.43;;;-3.40;99.90;;;;;;5069393;28;20152;-73
2021/11/30 04:42:36;;;;;;;8.95;5.80;;;-3.50;99.90;;;;;;5051373;28;20204;-72
2021/11/30 04:45:14;;;;;;;16.83;5.65;;;-3.50;99.90;;;;;;5069491;28;20153;-73
2021/11/30 04:47:41;;;;;;;10.38;5.82;;;-3.50;99.90;;;;;;5051511;28;20210;-72
2021/11/30 04:50:15;;;;;;;7.85;6.10;;;-3.60;99.90;;;;;;5069446;28;20221;-73
2021/11/30 04:52:44;;;;;;;6.93;4.78;;;-3.60;99.90;;;;;;5069350;28;20199;-73
2021/11/30 04:55:10;;;;;;;6.38;3.95;;;-3.60;99.90;;;;;;5050743;28;20208;-72
2021/11/30 04:57:36;;;;;;;7.68;5.35;;;-3.50;99.90;;;;;;5051298;28;20171;-72
2021/11/30 05:00:04;;;;;;;8.40;5.25;;;-3.40;99.90;;;;;;5051231;28;20207;-74
2021/11/30 05:02:29;;;;;;;7.45;4.82;;;-3.40;99.90;;;;;;5069189;28;20211;-74
2021/11/30 05:04:55;;;;;;;7.18;5.18;;;-3.40;99.90;;;;;;5069234;28;20630;-73
2021/11/30 05:07:21;;;;;;;8.45;5.65;;;-3.30;99.90;;;;;;5051330;28;20184;-72
2021/11/30 05:09:47;;;;;;;9.18;5.72;;;-3.30;99.90;;;;;;5068850;28;20614;-72
2021/11/30 05:12:13;;;;;;;10.98;5.80;;;-3.40;99.90;;;;;;5068884;28;20196;-71
2021/11/30 05:14:40;;;;;;;8.02;4.72;;;-3.30;99.90;;;;;;5050907;28;20220;-74
2021/11/30 05:17:06;;;;;;;8.75;5.65;;;-3.30;99.90;;;;;;5068955;28;20248;-74
2021/11/30 05:19:32;;;;;;;11.88;6.43;;;-3.30;99.90;;;;;;5068990;28;20161;-73
2021/11/30 05:21:58;;;;;;;9.10;5.57;;;-3.30;99.90;;;;;;5050663;28;20228;-72
2021/11/30 05:24:25;;;;;;;12.40;6.97;;;-3.20;99.90;;;;;;5050906;28;20175;-74
2021/11/30 05:26:54;;;;;;;9.43;6.95;;;-3.40;99.90;;;;;;5068777;28;20161;-73
2021/11/30 05:29:20;;;;;;;9.57;6.82;;;-3.50;99.90;;;;;;5068700;28;20271;-73
2021/11/30 05:31:46;;;;;;;8.25;6.03;;;-3.50;99.90;;;;;;5068814;28;20161;-74
2021/11/30 05:34:13;;;;;;;9.82;6.20;;;-3.50;99.90;;;;;;5050986;28;20199;-73
2021/11/30 05:36:39;;;;;;;9.10;5.75;;;-3.60;99.90;;;;;;5068652;28;20190;-73
2021/11/30 05:39:05;;;;;;;6.75;4.15;;;-3.50;99.90;;;;;;5050945;28;20214;-73
2021/11/30 05:41:31;;;;;;;8.35;5.18;;;-3.40;99.90;;;;;;5050455;28;20177;-73
2021/11/30 05:43:57;;;;;;;8.88;5.40;;;-3.30;99.90;;;;;;5048527;28;20196;-73
2021/11/30 05:46:23;;;;;;;11.30;6.35;;;-3.30;99.90;;;;;;5067238;28;20185;-73
2021/11/30 05:48:49;;;;;;;7.47;5.78;;;-3.30;99.90;;;;;;5071190;28;20183;-73
2021/11/30 05:51:16;;;;;;;6.68;5.03;;;-3.30;99.90;;;;;;5070720;28;20153;-72
2021/11/30 05:53:41;;;;;;;11.43;7.72;;;-3.30;99.90;;;;;;5071004;28;20193;-71
2021/11/30 05:56:09;;;;;;;15.48;7.05;;;-3.30;99.90;;;;;;5070961;28;20225;-73
2021/11/30 05:58:38;;;;;;;13.60;7.65;;;-3.40;99.90;;;;;;5072305;28;20216;-72
2021/11/30 06:01:20;;;;;;;10.25;7.55;;;-3.40;99.90;;;;;;5072676;28;20168;-72
2021/11/30 06:06:18;;;;;;;15.02;8.75;;;-3.60;99.90;;;;;;5071981;28;20161;-73
2021/11/30 06:08:45;;;;;;;17.70;9.90;;;-3.60;99.90;;;;;;5072136;28;20185;-74
2021/11/30 06:11:10;;;;;;;12.30;7.10;;;-3.60;99.90;;;;;;5072319;28;20161;-73
2021/11/30 06:13:36;;;;;;;14.23;7.57;;;-3.70;99.90;;;;;;5072001;28;20230;-72
2021/11/30 06:16:02;;;;;;;11.18;7.47;;;-3.80;99.90;;;;;;5071831;28;20610;-73
2021/11/30 06:18:28;;;;;;;12.32;7.28;;;-3.90;99.90;;;;;;5054181;28;20173;-73
2021/11/30 06:20:54;;;;;;;15.20;8.60;;;-4.00;99.90;;;;;;5071673;28;20245;-72
2021/11/30 06:23:21;;;;;;;15.57;8.52;;;-4.00;99.90;;;;;;5053710;28;20193;-73
2021/11/30 06:25:46;;;;;;;16.08;10.75;;;-3.90;99.90;;;;;;5053535;28;20187;-73
2021/11/30 06:28:12;;;;;;;12.10;8.48;;;-3.90;99.90;;;;;;5053838;28;20173;-72
2021/11/30 06:30:38;;;;;;;16.95;9.57;;;-3.90;99.90;;;;;;5053824;28;20244;-74
2021/11/30 06:33:04;;;;;;;14.73;8.63;;;-3.90;99.90;;;;;;5071543;28;20621;-73
2021/11/30 06:35:31;;;;;;;16.08;9.65;;;-3.80;99.90;;;;;;5071568;28;20227;-73
2021/11/30 06:37:57;;;;;;;14.50;9.00;;;-3.80;99.90;;;;;;5053701;28;20164;-72
2021/11/30 06:40:23;;;;;;;11.25;8.23;;;-3.80;99.90;;;;;;5053560;28;20177;-73
2021/11/30 06:42:49;;;;;;;13.55;7.13;;;-3.70;99.90;;;;;;5053395;28;20204;-74
2021/11/30 06:45:15;;;;;;;9.82;6.63;;;-3.70;99.90;;;;;;5071412;28;20203;-73
2021/11/30 06:47:43;;;;;;;14.52;7.43;;;-3.70;99.90;;;;;;5053700;28;20165;-73
2021/11/30 06:50:10;;;;;;;13.27;7.78;;;-3.80;99.90;;;;;;5071236;28;20161;-72
2021/11/30 06:52:38;;;;;;;14.90;7.32;;;-3.90;99.90;;;;;;5071363;28;20161;-72
2021/11/30 06:55:06;;;;;;;14.18;7.57;;;-3.80;99.90;;;;;;5070950;28;20311;-73
2021/11/30 06:57:32;;;;;;;16.55;7.88;;;-3.60;99.90;;;;;;5071371;28;20149;-73
2021/11/30 07:00:02;;;;;;;16.33;8.10;;;-3.50;99.90;;;;;;5052076;28;20172;-73
2021/11/30 07:02:29;;;;;;;15.65;9.40;;;-3.50;99.90;;;;;;5052713;28;20176;-73
2021/11/30 07:04:57;;;;;;;14.85;8.90;;;-3.50;99.90;;;;;;5070899;28;20219;-73
2021/11/30 07:10:22;;;;;;;8.75;7.00;;;-3.20;99.90;;;;;;5071256;28;20157;-74
2021/11/30 07:15:32;;;;;;;9.27;6.82;;;-3.30;99.90;;;;;;5070656;28;20279;-72
2021/11/30 07:18:00;;;;;;;13.07;9.30;;;-3.40;99.90;;;;;;5070935;28;20164;-72
2021/11/30 07:20:26;;;;;;;13.23;8.93;;;-3.50;99.90;;;;;;5070830;28;20212;-72
2021/11/30 07:22:56;;;;;;;11.05;7.93;;;-3.60;99.90;;;;;;5052883;28;20176;-72
2021/11/30 07:25:22;;;;;;;16.40;7.13;;;-3.50;99.90;;;;;;5070810;28;20184;-73
2021/11/30 07:27:48;;;;;;;9.07;6.90;;;-3.40;99.90;;;;;;5070846;28;20220;-72
2021/11/30 07:30:15;;;;;;;15.60;8.07;;;-3.40;99.90;;;;;;5070714;28;20168;-71
2021/11/30 07:32:40;;;;;;;12.07;7.68;;;-3.30;99.90;;;;;;5052734;28;20185;-72
2021/11/30 07:35:07;;;;;;;19.88;9.70;;;-3.00;99.90;;;;;;5070513;28;20218;-74
2021/11/30 07:37:33;;;;;;;13.07;9.10;;;-2.80;99.90;;;;;;5052421;28;20172;-74
2021/11/30 07:39:59;;;;;;;19.33;9.52;;;-2.80;99.90;;;;;;5070467;28;20628;-74
2021/11/30 07:42:29;;;;;;;18.52;9.40;;;-2.70;99.90;;;;;;5052581;28;20172;-74
2021/11/30 07:44:54;;;;;;;13.70;8.50;;;-2.70;99.90;;;;;;5069001;28;20200;-73
2021/11/30 07:47:20;;;;;;;14.02;8.57;;;-2.70;99.90;;;;;;5070188;28;20165;-74
2021/11/30 07:49:46;;;;;;;11.63;8.10;;;-2.40;99.90;;;;;;5050969;28;20200;-74
2021/11/30 07:52:13;;;;;;;12.13;8.38;;;-2.20;99.90;;;;;;5052444;28;20199;-74
2021/11/30 07:54:39;;;;;;;15.13;9.15;;;-2.00;99.90;;;;;;5052334;28;20208;-75
2021/11/30 07:57:05;;;;;;;16.95;10.52;;;-1.50;99.90;;;;;;5070590;28;20187;-75
2021/11/30 07:59:32;;;;;;;15.50;9.63;;;-1.20;99.90;;;;;;5070282;28;20161;-75
2021/11/30 08:01:59;;;;;;;14.43;9.20;;;-0.90;99.90;;;;;;5070312;28;20152;-75
2021/11/30 08:04:25;;;;;;;14.05;9.07;;;-0.30;99.90;;;;;;5052357;28;20184;-75
2021/11/30 08:06:51;;;;;;;14.02;8.57;;;0.00;99.90;;;;;;5070291;28;20596;-75
2021/11/30 08:09:17;;;;;;;13.23;8.80;;;0.80;99.90;;;;;;5065936;28;20271;-76
2021/11/30 08:11:42;;;;;;;14.88;9.65;;;1.40;99.90;;;;;;5068491;28;20242;-75
2021/11/30 08:14:10;;;;;;;14.23;8.48;;;1.70;99.90;;;;;;5068727;28;20201;-75
2021/11/30 08:16:36;;;;;;;16.05;10.60;;;1.10;99.90;;;;;;5061517;28;20545;-75
2021/11/30 08:19:03;;;;;;;14.80;8.10;;;1.50;99.90;;;;;;5052027;28;20168;-74
2021/11/30 08:21:31;;;;;;;15.13;8.93;;;2.30;99.90;;;;;;5069518;28;20220;-75
2021/11/30 08:23:57;;;;;;;13.90;8.70;;;2.70;99.90;;;;;;5051672;28;20251;-75
2021/11/30 08:26:23;;;;;;;13.40;7.35;;;2.40;99.90;;;;;;5051923;28;20169;-74
2021/11/30 08:28:49;;;;;;;10.00;7.32;;;3.00;99.90;;;;;;5051856;28;20222;-75
2021/11/30 08:31:15;;;;;;;11.23;7.47;;;3.80;99.90;;;;;;5069492;28;20265;-75
2021/11/30 08:33:41;;;;;;;11.90;6.68;;;4.30;99.90;;;;;;5069465;28;20618;-75
2021/11/30 08:36:07;;;;;;;11.57;7.60;;;4.70;99.90;;;;;;5051698;28;20224;-75
2021/11/30 08:38:33;;;;;;;11.75;7.35;;;3.80;99.90;;;;;;5051515;28;20164;-74
2021/11/30 08:40:59;;;;;;;12.82;7.80;;;2.80;99.90;;;;;;5069130;28;20644;-75
2021/11/30 08:43:26;;;;;;;10.60;7.18;;;2.60;99.90;;;;;;5069485;28;20161;-75
2021/11/30 08:45:54;;;;;;;11.65;7.40;;;3.20;99.90;;;;;;5069439;28;20191;-74
2021/11/30 08:48:22;;;;;;;9.25;6.80;;;3.20;99.90;;;;;;5069626;28;20180;-75
2021/11/30 08:50:48;;;;;;;18.55;7.45;;;3.10;99.90;;;;;;5069225;28;20203;-75
2021/11/30 08:53:14;;;;;;;12.50;7.00;;;3.10;99.90;;;;;;5051490;28;20157;-75
2021/11/30 08:55:39;;;;;;;11.98;7.45;;;3.30;99.90;;;;;;5051330;28;20295;-75
2021/11/30 08:58:06;;;;;;;13.30;6.63;;;4.20;99.90;;;;;;5069319;28;20523;-74
2021/11/30 09:00:33;;;;;;;11.60;6.63;;;5.10;99.90;;;;;;5051021;28;20195;-75
2021/11/30 09:03:00;;;;;;;9.77;6.40;;;5.50;99.90;;;;;;5069249;28;20184;-75
2021/11/30 09:05:27;;;;;;;10.57;6.18;;;6.40;99.90;;;;;;5069104;28;20179;-75
2021/11/30 09:07:53;;;;;;;12.35;6.88;;;6.20;99.90;;;;;;5068743;28;20711;-75
2021/11/30 09:10:19;;;;;;;12.07;6.93;;;6.20;99.90;;;;;;5068987;28;20189;-76
2021/11/30 09:12:46;;;;;;;14.50;6.50;;;6.40;99.90;;;;;;5069196;28;20169;-76
2021/11/30 09:15:12;;;;;;;9.15;6.28;;;6.70;99.90;;;;;;5067709;28;20257;-76
2021/11/30 09:17:38;;;;;;;11.20;7.07;;;6.70;99.90;;;;;;5068658;28;20276;-76
2021/11/30 09:20:06;;;;;;;10.18;6.57;;;5.60;99.90;;;;;;5050735;28;20195;-76
2021/11/30 09:22:32;;;;;;;12.57;7.03;;;5.30;99.90;;;;;;5050070;28;20191;-77
2021/11/30 09:25:00;;;;;;;9.73;6.10;;;5.40;99.90;;;;;;5068954;28;20168;-77
2021/11/30 09:27:26;;;;;;;17.08;7.53;;;5.30;99.90;;;;;;5068838;28;20172;-76
2021/11/30 09:29:54;;;;;;;12.10;6.85;;;4.80;99.90;;;;;;5068890;28;20207;-76
2021/11/30 09:32:20;;;;;;;11.50;6.43;;;4.60;99.90;;;;;;5068843;28;20244;-79
2021/11/30 09:34:46;;;;;;;8.90;6.00;;;4.90;99.90;;;;;;5068864;28;20187;-78
2021/11/30 09:37:12;;;;;;;12.05;6.43;;;5.40;99.90;;;;;;5050746;28;20168;-76
2021/11/30 09:39:38;;;;;;;11.82;5.80;;;5.70;99.90;;;;;;5068492;28;20220;-76
2021/11/30 09:42:05;;;;;;;9.85;6.00;;;4.40;99.90;;;;;;5050899;28;20244;-76
2021/11/30 09:44:32;;;;;;;13.77;5.93;;;3.40;99.90;;;;;;5068685;28;20253;-79
2021/11/30 09:47:00;;;;;;;14.18;7.10;;;3.30;99.90;;;;;;5050559;28;20169;-77
2021/11/30 09:49:27;;;;;;;11.90;6.85;;;2.70;99.90;;;;;;5068820;28;20197;-75
2021/11/30 09:51:53;;;;;;;12.95;5.82;;;2.40;99.90;;;;;;5068551;28;20164;-76
2021/11/30 09:54:20;;;;;;;10.57;5.40;;;2.10;99.90;;;;;;5050502;28;20215;-76
2021/11/30 09:56:46;;;;;;;9.07;5.15;;;2.70;99.90;;;;;;5068372;28;20157;-76
2021/11/30 09:59:12;;;;;;;11.70;6.35;;;2.70;99.90;;;;;;5068536;28;20164;-76
2021/11/30 10:01:38;;;;;;;11.48;5.07;;;3.40;99.90;;;;;;5068424;28;20189;-78
2021/11/30 10:04:04;;;;;;;9.45;5.35;;;3.70;99.90;;;;;;5050019;28;20176;-78
2021/11/30 10:06:31;;;;;;;7.90;5.25;;;4.60;99.90;;;;;;5050397;28;20176;-78
2021/11/30 10:08:59;;;;;;;10.80;5.57;;;5.50;99.90;;;;;;5061070;28;20181;-79
2021/11/30 10:11:26;;;;;;;9.70;5.55;;;6.60;99.90;;;;;;5068441;28;20246;-79
2021/11/30 10:14:23;;;;;;;11.98;5.70;;;6.00;99.90;;;;;;5068179;28;20188;-78
2021/11/30 10:17:11;;;;;;;9.07;5.38;;;5.40;99.90;;;;;;5068296;28;20164;-78
2021/11/30 10:19:39;;;;;;;12.40;5.30;;;6.40;99.90;;;;;;5068208;28;20157;-79
2021/11/30 10:22:05;;;;;;;8.48;5.35;;;7.30;99.90;;;;;;5068042;28;20212;-79
2021/11/30 10:24:31;;;;;;;10.68;5.65;;;6.80;99.90;;;;;;5068056;28;20168;-79
2021/11/30 10:26:58;;;;;;;16.27;5.57;;;6.00;99.90;;;;;;5068091;28;20161;-78
2021/11/30 10:29:24;;;;;;;7.72;4.88;;;6.10;99.90;;;;;;5068210;28;20172;-78
2021/11/30 10:31:54;;;;;;;14.77;5.55;;;6.10;99.90;;;;;;5050217;28;20165;-78
2021/11/30 10:34:25;;;;;;;12.60;5.63;;;6.60;99.90;;;;;;5051626;28;20188;-78
2021/11/30 10:37:10;;;;;;;10.90;5.22;;;7.60;99.90;;;;;;5071325;28;20157;-75
2021/11/30 10:39:39;;;;;;;10.73;6.32;;;8.30;99.90;;;;;;5071577;28;20240;-75
2021/11/30 10:42:12;;;;;;;11.02;5.32;;;8.70;99.90;;;;;;5057271;28;20195;-75
2021/11/30 10:44:38;;;;;;;10.65;5.90;;;7.40;99.90;;;;;;5066945;28;20172;-76
2021/11/30 10:47:24;;;;;;;20.15;7.53;;;7.00;99.90;;;;;;5071503;28;20161;-75
2021/11/30 10:49:53;;;;;;;9.82;5.70;;;6.10;99.90;;;;;;5070208;28;20200;-76
2021/11/30 10:52:27;;;;;;;18.15;7.45;;;6.40;99.90;;;;;;5070218;28;20176;-75
2021/11/30 10:55:07;;;;;;;12.38;5.47;;;5.60;99.90;;;;;;5071197;28;20214;-76
2021/11/30 10:57:35;;;;;;;11.07;5.38;;;4.50;99.90;;;;;;5071433;28;20165;-76
2021/11/30 11:00:13;;;;;;;10.13;4.82;;;4.00;99.90;;;;;;5071320;28;20212;-76
2021/11/30 11:03:46;;;;;;;9.82;6.10;;;4.00;99.90;;;;;;5071095;28;20145;-75
2021/11/30 11:06:26;;;;;;;10.05;5.45;;;3.70;99.90;;;;;;5053553;28;20172;-77
2021/11/30 11:08:44;;;;;;;16.10;6.18;;;3.70;99.90;;;;;;5070589;28;20672;-75
2021/11/30 11:11:11;;;;;;;15.82;7.07;;;3.40;99.90;;;;;;5071098;28;20183;-74
2021/11/30 11:13:39;;;;;;;8.73;6.40;;;3.10;99.90;;;;;;5070988;28;20167;-75
2021/11/30 11:16:07;;;;;;;19.40;7.47;;;3.00;99.90;;;;;;5071060;28;20199;-75
2021/11/30 11:18:37;;;;;;;9.05;6.45;;;3.00;99.90;;;;;;5070367;28;20169;-75
2021/11/30 11:21:21;;;;;;;17.67;8.02;;;3.30;99.90;;;;;;5070342;28;20224;-76
2021/11/30 11:23:57;;;;;;;15.75;7.85;;;3.50;99.90;;;;;;5071004;28;20185;-75
2021/11/30 11:26:36;;;;;;;16.95;8.35;;;4.00;99.90;;;;;;5070840;28;20157;-75
2021/11/30 11:29:11;;;;;;;17.55;7.50;;;4.90;99.90;;;;;;5052707;28;20683;-74
2021/11/30 11:31:40;;;;;;;12.75;6.57;;;5.60;99.90;;;;;;5052649;28;20192;-76
2021/11/30 11:34:07;;;;;;;9.88;6.38;;;6.50;99.90;;;;;;5052757;28;20193;-75
2021/11/30 11:36:33;;;;;;;10.93;5.97;;;7.50;99.90;;;;;;5070806;28;20160;-74
2021/11/30 11:39:01;;;;;;;17.90;8.05;;;8.00;99.90;;;;;;5070465;28;20210;-76
2021/11/30 11:41:29;;;;;;;8.95;5.25;;;8.60;99.90;;;;;;5070200;28;20195;-75
2021/11/30 11:43:57;;;;;;;16.08;6.03;;;7.90;99.90;;;;;;5069809;28;20172;-74
2021/11/30 11:46:26;;;;;;;8.70;5.28;;;7.00;99.90;;;;;;5069117;28;20177;-75
2021/11/30 11:48:59;;;;;;;15.95;5.88;;;6.70;99.90;;;;;;5052438;28;20161;-75
2021/11/30 11:51:42;;;;;;;14.18;4.90;;;6.50;99.90;;;;;;5052545;28;20235;-74
2021/11/30 11:54:29;;;;;;;20.40;6.32;;;6.80;99.90;;;;;;5070272;28;20284;-75
2021/11/30 11:57:06;;;;;;;9.70;4.75;;;7.30;99.90;;;;;;5069945;28;20536;-76
2021/11/30 11:59:34;;;;;;;9.93;5.70;;;7.80;99.90;;;;;;5051645;28;20194;-78
2021/11/30 12:02:27;;;;;;;7.15;4.45;;;8.20;99.90;;;;;;5070025;28;20161;-76
2021/11/30 12:05:00;;;;;;;8.60;4.60;;;8.80;99.90;;;;;;5065815;28;20196;-75
2021/11/30 12:07:47;;;;;;;18.63;4.93;;;8.50;99.90;;;;;;5051938;28;20221;-76
2021/11/30 12:10:18;;;;;;;7.47;3.78;;;8.60;99.90;;;;;;5068196;28;20224;-77
2021/11/30 12:13:00;;;;;;;7.93;3.75;;;8.20;99.90;;;;;;5068897;28;20195;-75
2021/11/30 12:15:34;;;;;;;9.75;4.35;;;7.80;99.90;;;;;;5069743;28;20718;-76
2021/11/30 12:18:27;;;;;;;6.13;3.25;;;6.70;99.90;;;;;;5051720;28;20225;-75
2021/11/30 12:21:06;;;;;;;14.52;4.03;;;6.00;99.90;;;;;;5048084;28;20224;-75
2021/11/30 12:23:34;;;;;;;13.60;4.05;;;5.50;99.90;;;;;;5049508;28;20185;-75
2021/11/30 12:26:01;;;;;;;5.35;2.60;;;5.60;99.90;;;;;;5049828;28;20165;-75
2021/11/30 12:28:37;;;;;;;3.72;2.47;;;5.50;99.90;;;;;;5046698;28;21556;-76
2021/11/30 12:31:04;;;;;;;9.77;2.63;;;5.10;99.90;;;;;;5047962;28;20203;-74
2021/11/30 12:33:35;;;;;;;6.22;2.67;;;4.60;99.90;;;;;;5048026;28;20244;-75
2021/11/30 12:36:11;;;;;;;2.83;2.00;;;4.50;99.90;;;;;;5046894;28;20165;-75
2021/11/30 12:38:56;;;;;;;6.43;1.80;;;4.40;99.90;;;;;;5045476;28;20627;-75
2021/11/30 12:41:31;;;;;;;3.58;2.20;;;4.50;99.90;;;;;;5047697;28;20200;-75
2021/11/30 12:44:06;;;;;;;6.30;1.65;;;4.60;99.90;;;;;;5049314;28;20255;-75
2021/11/30 12:46:35;;;;;;;6.70;2.08;;;4.90;99.90;;;;;;5047779;28;20173;-75
2021/11/30 12:49:24;;;;;;;11.63;2.70;;;5.30;99.90;;;;;;5047210;28;20177;-75
2021/11/30 12:52:04;;;;;;;3.35;1.63;;;5.50;99.90;;;;;;5047643;28;20177;-75
2021/11/30 12:54:30;;;;;;;4.03;1.42;;;5.60;99.90;;;;;;5047843;28;20197;-74
2021/11/30 12:56:58;;;;;;;5.43;2.28;;;5.30;99.90;;;;;;5049143;28;20198;-75
2021/11/30 12:59:41;;;;;;;5.15;2.08;;;5.10;99.90;;;;;;5047445;28;20169;-76
2021/11/30 13:02:19;;;;;;;3.83;2.33;;;5.00;99.90;;;;;;5047739;28;20165;-75
2021/11/30 13:04:47;;;;;;;6.40;1.70;;;5.00;99.90;;;;;;5047773;28;20181;-75
2021/11/30 13:07:16;;;;;;;9.68;2.42;;;5.10;99.90;;;;;;5047407;28;20605;-75